Virtual Futura



 METAR AND TAF INFORMATION
METAR FOR LKTB
ADDS - METARS form results

(1201 UTC 19 July 2019)
Data provider http://aviationweather.gov/metar/data/
 
METAR text: LKTB 191130Z 22008KT 190V250 9999 -SHRA FEW055CB 25/14 Q1015 NOSIG
Conditions at: LKTB (BRNO/TURANY , CZ) observed 1130 UTC 19 July 2019
Temperature: 25.0°C (77°F)
Dewpoint: 14.0°C (57°F) [RH = 50%]
Pressure (altimeter): 29.97 inches Hg (1015.0 mb)
Winds: from the SW (220 degrees) at 9 MPH (8 knots; 4.1 m/s)
Visibility: 6 or more miles (10+ km)
Ceiling: at least 12,000 feet AGL
Clouds: few clouds at 5500 feet AGL
Weather: -SHRA  (light rain showers)

METAR text: LKTB 191124Z 21007KT 190V250 9999 -TSRA FEW055CB 26/14 Q1015 RMK REG QNH 1012
Conditions at: LKTB (BRNO/TURANY , CZ) observed 1124 UTC 19 July 2019
Temperature: 26.0°C (79°F)
Dewpoint: 14.0°C (57°F) [RH = 48%]
Pressure (altimeter): 29.97 inches Hg (1015.0 mb)
Winds: from the SSW (210 degrees) at 8 MPH (7 knots; 3.6 m/s)
Visibility: 6 or more miles (10+ km)
Ceiling: at least 12,000 feet AGL
Clouds: few clouds at 5500 feet AGL
Weather: -TSRA  (light rain associated with thunderstorm(s))

METAR text: LKTB 191116Z 23006KT 180V280 9999 TS FEW055CB 26/13 Q1015 RMK REG QNH 1012
Conditions at: LKTB (BRNO/TURANY , CZ) observed 1116 UTC 19 July 2019
Temperature: 26.0°C (79°F)
Dewpoint: 13.0°C (55°F) [RH = 45%]
Pressure (altimeter): 29.97 inches Hg (1015.0 mb)
Winds: from the SW (230 degrees) at 7 MPH (6 knots; 3.1 m/s)
Visibility: 6 or more miles (10+ km)
Ceiling: at least 12,000 feet AGL
Clouds: few clouds at 5500 feet AGL
Weather: TS  (thunderstorm)

Forecast for: LKTB (BRNO/TURANY , CZ)
Text: TAF LKTB 191100Z 1912/2018 10002KT CAVOK
Forecast period: 1200 UTC 19 July 2019 to 0600 UTC 20 July 2019
Forecast type: FROM: standard forecast or significant change
Winds: from the E (100 degrees) at 2 MPH (2 knots; 1.0 m/s)
Visibility: 6 or more miles 10+ km)
Ceiling: unknown
Clouds: missing
Weather: NSW  (no significant weather)
Text: TEMPO 1912/1915 21007KT
Forecast period: 1200 to 1500 UTC 19 July 2019
Forecast type: TEMPORARY: The following changes expected for less than half the time period
Winds: from the SSW (210 degrees) at 8 MPH (7 knots; 3.6 m/s)
Visibility: missing
Ceiling: unknown
Clouds: missing
Weather: no significant weather forecast for this period
Text: TEMPO 1912/1920 7000 -SHRA SCT050TCU
Forecast period: 1200 to 2000 UTC 19 July 2019
Forecast type: TEMPORARY: The following changes expected for less than half the time period
Visibility: 4 miles (7 km)
Ceiling: at least 12,000 feet AGL
Clouds: scattered clouds at 5000 feet AGL
Weather: -SHRA  (light rain showers)
Text: PROB30
Forecast period: 1200 to 1900 UTC 19 July 2019
Forecast type: TEMPORARY: The following changes expected for less than half the time period
Winds: from the NNW (330 degrees) at 14 MPH (12 knots; 6.2 m/s)
gusting to 34 MPH (30 knots; 15.4 m/s)
Visibility: 3 miles (5 km)
Ceiling: 4500 feet AGL
Clouds: scattered clouds at 4000 feet AGL
broken clouds at 4500 feet AGL
Weather: TSRA  (rain associated with thunderstorm(s))
Text: TEMPO 1912/1919 33012G30KT 5000 TSRA SCT040CB BKN045
Forecast period: 0600 to 1800 UTC 20 July 2019
Forecast type: BECOMING: Conditions expected to become as follows by 0800 UTC 20 July 2019
Winds: from the SSE (150 degrees) at 7 MPH (6 knots; 3.1 m/s)
Visibility: 6 or more miles 10+ km)
Ceiling: unknown
Clouds: missing
Weather: NSW  (no significant weather)

 AIRPORT MAP

 RUNWAY INFORMATION
Runway 10 Runway length 8694 ft Runway width 197 ft
Runway elevation 764 ft Runway displaced threshold 0 ft Runway heading 97
Runway 28 Runway length 8694 ft Runway width 197 ft
Runway elevation 771 ft Runway displaced threshold 0 ft Runway heading 277

 AIRPORT FREQUENCIES
Type APP Name Brno Radar Frequency 120.55 MHZ
Type ATIS Name Turany ATI Frequency 131.1 MHZ
Type GND Name Turany Gro Frequency 125.425 MHZ
Type TWR Name Turany Tow Frequency 119.6 MHZ

 AIRPORT NEAR NAVIGATION AIDS
Type VOR-DME Name Brno Frequency 113900 KHZ
Type NDB Name Brno Frequency 368 KHZ

Poltica de Cookies

Esta web utiliza cookies para obtener datos estadsticos de la navegacin de sus usuarios. Si continas navegando consideramos que aceptas su uso. Ms informacin X Cerrar